createdAt,value
2023-02-26T00:00:23.673Z,377
2023-02-26T00:01:22.068Z,374
2023-02-26T00:02:22.387Z,376
2023-02-26T00:03:21.783Z,367
2023-02-26T00:04:22.209Z,375
2023-02-26T00:05:22.733Z,386
2023-02-26T00:06:22.584Z,385
2023-02-26T00:08:21.924Z,391
2023-02-26T00:09:21.281Z,383
2023-02-26T00:11:22.676Z,391
2023-02-26T00:12:21.881Z,390
2023-02-26T00:13:41.666Z,376
2023-02-26T00:14:21.686Z,380
2023-02-26T00:16:22.408Z,382
2023-02-26T00:17:21.770Z,383
2023-02-26T00:18:21.967Z,387
2023-02-26T00:19:22.096Z,386
2023-02-26T00:20:22.492Z,379
2023-02-26T00:21:22.393Z,373
2023-02-26T00:22:22.035Z,377
2023-02-26T00:25:22.746Z,388
2023-02-26T00:26:21.722Z,394
2023-02-26T00:27:22.323Z,393
2023-02-26T00:28:22.007Z,381
2023-02-26T00:29:22.832Z,390
2023-02-26T00:30:22.230Z,385
2023-02-26T00:31:21.948Z,393
2023-02-26T00:32:22.091Z,380
2023-02-26T00:33:22.550Z,378
2023-02-26T00:34:22.329Z,383
2023-02-26T00:35:22.639Z,380
2023-02-26T00:36:22.468Z,385
2023-02-26T00:37:22.501Z,387
2023-02-26T00:38:22.019Z,385
2023-02-26T00:40:22.323Z,389
2023-02-26T00:41:22.531Z,381
2023-02-26T00:42:22.357Z,378
2023-02-26T00:43:22.182Z,380
2023-02-26T00:44:21.667Z,372
2023-02-26T00:45:21.906Z,376
2023-02-26T00:46:22.078Z,381
2023-02-26T00:48:22.443Z,380
2023-02-26T00:49:22.464Z,393
2023-02-26T00:50:22.673Z,385
2023-02-26T00:52:21.990Z,378
2023-02-26T00:53:22.495Z,370
2023-02-26T00:54:22.028Z,374
2023-02-26T00:55:22.190Z,378
2023-02-26T00:57:22.484Z,375
2023-02-26T00:58:22.118Z,384
2023-02-26T00:59:22.381Z,390
2023-02-26T01:00:23.997Z,379
2023-02-26T01:01:25.731Z,381
2023-02-26T01:02:22.305Z,379
2023-02-26T01:03:21.927Z,374
2023-02-26T01:04:22.558Z,381
2023-02-26T01:05:22.174Z,385
2023-02-26T01:06:23.060Z,383
2023-02-26T01:07:22.617Z,385
2023-02-26T01:08:21.946Z,387
2023-02-26T01:09:21.936Z,382
2023-02-26T01:10:22.368Z,380
2023-02-26T01:11:22.394Z,381
2023-02-26T01:12:21.744Z,383
2023-02-26T01:13:22.301Z,386
2023-02-26T01:15:22.452Z,383
2023-02-26T01:16:21.950Z,387
2023-02-26T01:17:21.175Z,389
2023-02-26T01:18:21.552Z,378
2023-02-26T01:19:22.570Z,381
2023-02-26T01:20:22.237Z,378
2023-02-26T01:21:22.442Z,372
2023-02-26T01:22:22.329Z,363
2023-02-26T01:23:22.414Z,371
2023-02-26T01:24:22.772Z,386
2023-02-26T01:25:22.141Z,381
2023-02-26T01:26:23.437Z,380
2023-02-26T01:27:21.481Z,384
2023-02-26T01:28:22.395Z,381
2023-02-26T01:29:22.209Z,375
2023-02-26T01:30:22.450Z,362
2023-02-26T01:32:23.312Z,372
2023-02-26T01:33:22.481Z,373
2023-02-26T01:34:22.757Z,378
2023-02-26T01:35:22.359Z,388
2023-02-26T01:36:21.704Z,383
2023-02-26T01:37:21.625Z,380
2023-02-26T01:38:22.633Z,385
2023-02-26T01:39:21.790Z,393
2023-02-26T01:40:22.423Z,389
2023-02-26T01:41:22.111Z,384
2023-02-26T01:42:22.094Z,386
2023-02-26T01:43:22.210Z,379
2023-02-26T01:44:22.139Z,384
2023-02-26T01:46:22.670Z,377
2023-02-26T01:47:22.357Z,379
2023-02-26T01:48:22.699Z,385
2023-02-26T01:49:21.842Z,390
2023-02-26T01:50:22.749Z,384
2023-02-26T01:51:22.123Z,382
2023-02-26T01:52:22.264Z,384
2023-02-26T01:53:22.445Z,379
2023-02-26T01:54:22.384Z,369
2023-02-26T01:55:22.725Z,362
2023-02-26T01:56:22.219Z,365
2023-02-26T01:57:22.575Z,370
2023-02-26T01:58:21.853Z,377
2023-02-26T01:59:22.446Z,397
2023-02-26T02:00:28.613Z,389
2023-02-26T02:01:23.236Z,386
2023-02-26T02:02:27.238Z,381
2023-02-26T02:03:22.475Z,382
2023-02-26T02:04:22.037Z,380
2023-02-26T02:05:22.303Z,374
2023-02-26T02:06:22.243Z,372
2023-02-26T02:07:22.249Z,377
2023-02-26T02:08:22.643Z,376
2023-02-26T02:09:22.135Z,380
2023-02-26T02:10:22.088Z,391
2023-02-26T02:11:22.026Z,388
2023-02-26T02:12:21.996Z,386
2023-02-26T02:13:22.320Z,378
2023-02-26T02:14:22.464Z,389
2023-02-26T02:15:22.699Z,386
2023-02-26T02:16:21.783Z,387
2023-02-26T02:17:21.622Z,376
2023-02-26T02:18:22.244Z,379
2023-02-26T02:19:20.943Z,376
2023-02-26T02:20:22.967Z,378
2023-02-26T02:22:21.975Z,365
2023-02-26T02:23:21.860Z,367
2023-02-26T02:24:21.690Z,373
2023-02-26T02:25:21.556Z,374
2023-02-26T02:26:22.282Z,381
2023-02-26T02:27:22.040Z,375
2023-02-26T02:28:21.333Z,390
2023-02-26T02:29:22.028Z,388
2023-02-26T02:30:22.360Z,375
2023-02-26T02:31:22.332Z,378
2023-02-26T02:32:21.601Z,386
2023-02-26T02:33:22.365Z,377
2023-02-26T02:34:22.030Z,372
2023-02-26T02:35:21.933Z,369
2023-02-26T02:36:21.747Z,380
2023-02-26T02:37:22.357Z,374
2023-02-26T02:38:21.836Z,383
2023-02-26T02:39:21.596Z,389
2023-02-26T02:41:22.068Z,388
2023-02-26T02:42:21.850Z,394
2023-02-26T02:43:21.966Z,395
2023-02-26T02:44:21.580Z,393
2023-02-26T02:45:21.979Z,380
2023-02-26T02:46:21.917Z,385
2023-02-26T02:47:21.569Z,391
2023-02-26T02:49:21.468Z,382
2023-02-26T02:50:21.166Z,378
2023-02-26T02:51:21.220Z,391
2023-02-26T02:52:21.637Z,395
2023-02-26T02:53:21.667Z,390
2023-02-26T02:54:21.566Z,396
2023-02-26T02:55:21.418Z,389
2023-02-26T02:56:22.038Z,390
2023-02-26T02:57:21.435Z,388
2023-02-26T02:58:21.436Z,376
2023-02-26T02:59:21.110Z,384
2023-02-26T03:00:22.986Z,394
2023-02-26T03:01:21.897Z,389
2023-02-26T03:02:21.687Z,380
2023-02-26T03:03:22.305Z,376
2023-02-26T03:04:22.390Z,377
2023-02-26T03:05:21.833Z,384
2023-02-26T03:06:22.133Z,386
2023-02-26T03:08:21.720Z,385
2023-02-26T03:09:21.257Z,389
2023-02-26T03:10:22.186Z,392
2023-02-26T03:11:21.662Z,380
2023-02-26T03:12:22.515Z,385
2023-02-26T03:13:21.329Z,386
2023-02-26T03:14:21.908Z,391
2023-02-26T03:15:21.711Z,385
2023-02-26T03:16:22.020Z,381
2023-02-26T03:17:21.769Z,378
2023-02-26T03:18:21.548Z,373
2023-02-26T03:19:21.572Z,374
2023-02-26T03:20:22.595Z,378
2023-02-26T03:21:21.250Z,384
2023-02-26T03:23:22.098Z,389
2023-02-26T03:24:21.797Z,381
2023-02-26T03:25:21.217Z,378
2023-02-26T03:26:22.093Z,371
2023-02-26T03:27:21.144Z,386
2023-02-26T03:29:20.489Z,384
2023-02-26T03:30:22.544Z,387
2023-02-26T03:31:22.136Z,393
2023-02-26T03:33:21.843Z,389
2023-02-26T03:34:22.369Z,384
2023-02-26T03:35:21.584Z,391
2023-02-26T03:36:22.520Z,390
2023-02-26T03:37:21.206Z,379
2023-02-26T03:38:22.050Z,378
2023-02-26T03:39:21.692Z,385
2023-02-26T03:40:22.085Z,378
2023-02-26T03:41:21.338Z,385
2023-02-26T03:42:21.412Z,378
2023-02-26T03:43:21.389Z,374
2023-02-26T03:44:21.714Z,376
2023-02-26T03:45:21.833Z,384
2023-02-26T03:46:22.245Z,382
2023-02-26T03:47:21.952Z,393
2023-02-26T03:49:21.954Z,387
2023-02-26T03:50:22.356Z,388
2023-02-26T03:51:20.883Z,406
2023-02-26T03:52:21.505Z,403
2023-02-26T03:53:21.881Z,390
2023-02-26T03:54:21.767Z,391
2023-02-26T03:55:21.687Z,396
2023-02-26T03:56:21.448Z,389
2023-02-26T03:57:21.185Z,390
2023-02-26T03:58:21.368Z,393
2023-02-26T03:59:21.392Z,386
2023-02-26T04:00:23.351Z,384
2023-02-26T04:01:22.111Z,383
2023-02-26T04:02:21.891Z,388
2023-02-26T04:03:21.967Z,385
2023-02-26T04:04:21.818Z,389
2023-02-26T04:05:22.229Z,386
2023-02-26T04:06:21.722Z,387
2023-02-26T04:07:21.496Z,391
2023-02-26T04:08:21.567Z,392
2023-02-26T04:09:21.953Z,389
2023-02-26T04:10:21.680Z,383
2023-02-26T04:12:21.124Z,388
2023-02-26T04:13:21.502Z,391
2023-02-26T04:14:21.798Z,394
2023-02-26T04:15:22.217Z,376
2023-02-26T04:16:21.209Z,379
2023-02-26T04:17:21.304Z,381
2023-02-26T04:18:21.586Z,391
2023-02-26T04:19:21.482Z,392
2023-02-26T04:20:21.230Z,396
2023-02-26T04:21:22.458Z,398
2023-02-26T04:22:21.501Z,386
2023-02-26T04:23:21.478Z,383
2023-02-26T04:24:21.571Z,381
2023-02-26T04:25:21.678Z,383
2023-02-26T04:26:21.802Z,378
2023-02-26T04:28:21.422Z,379
2023-02-26T04:29:21.836Z,384
2023-02-26T04:30:21.910Z,393
2023-02-26T04:31:30.437Z,392
2023-02-26T04:32:22.024Z,395
2023-02-26T04:33:21.760Z,398
2023-02-26T04:34:22.394Z,393
2023-02-26T04:35:21.518Z,399
2023-02-26T04:36:21.759Z,394
2023-02-26T04:37:21.109Z,390
2023-02-26T04:38:21.429Z,399
2023-02-26T04:39:21.819Z,397
2023-02-26T04:40:22.194Z,385
2023-02-26T04:41:21.385Z,391
2023-02-26T04:42:21.573Z,388
2023-02-26T04:43:21.994Z,391
2023-02-26T04:44:21.177Z,384
2023-02-26T04:45:21.799Z,383
2023-02-26T04:46:21.512Z,388
2023-02-26T04:47:22.460Z,392
2023-02-26T04:48:21.978Z,399
2023-02-26T04:49:20.647Z,404
2023-02-26T04:51:21.951Z,399
2023-02-26T04:52:22.533Z,405
2023-02-26T04:53:21.801Z,404
2023-02-26T04:54:21.959Z,403
2023-02-26T04:55:22.878Z,396
2023-02-26T04:56:21.464Z,399
2023-02-26T04:57:21.591Z,392
2023-02-26T04:58:21.548Z,399
2023-02-26T04:59:21.703Z,398
2023-02-26T05:00:23.457Z,400
2023-02-26T05:01:21.787Z,392
2023-02-26T05:02:21.525Z,386
2023-02-26T05:03:21.780Z,392
2023-02-26T05:05:22.836Z,399
2023-02-26T05:06:21.685Z,391
2023-02-26T05:07:22.344Z,382
2023-02-26T05:08:22.811Z,389
2023-02-26T05:09:22.346Z,382
2023-02-26T05:10:22.306Z,394
2023-02-26T05:11:21.765Z,391
2023-02-26T05:13:21.800Z,387
2023-02-26T05:14:21.725Z,390
2023-02-26T05:16:21.883Z,396
2023-02-26T05:17:22.190Z,388
2023-02-26T05:18:21.412Z,381
2023-02-26T05:19:21.538Z,384
2023-02-26T05:20:21.617Z,391
2023-02-26T05:21:21.703Z,394
2023-02-26T05:22:22.001Z,398
2023-02-26T05:23:21.627Z,402
2023-02-26T05:24:21.558Z,397
2023-02-26T05:25:22.983Z,392
2023-02-26T05:26:21.618Z,394
2023-02-26T05:28:21.181Z,391
2023-02-26T05:29:21.981Z,398
2023-02-26T05:30:21.397Z,394
2023-02-26T05:31:21.776Z,387
2023-02-26T05:32:21.795Z,388
2023-02-26T05:33:22.040Z,384
2023-02-26T05:34:21.941Z,386
2023-02-26T05:35:21.677Z,389
2023-02-26T05:37:21.674Z,391
2023-02-26T05:38:21.580Z,385
2023-02-26T05:39:21.539Z,381
2023-02-26T05:41:22.032Z,382
2023-02-26T05:42:21.758Z,385
2023-02-26T05:43:21.788Z,386
2023-02-26T05:44:21.548Z,395
2023-02-26T05:45:22.518Z,394
2023-02-26T05:46:21.942Z,393
2023-02-26T05:47:21.082Z,385
2023-02-26T05:48:20.910Z,390
2023-02-26T05:49:21.208Z,384
2023-02-26T05:50:21.263Z,382
2023-02-26T05:51:21.730Z,390
2023-02-26T05:52:22.357Z,385
2023-02-26T05:53:21.791Z,390
2023-02-26T05:54:22.661Z,381
2023-02-26T05:55:21.577Z,371
2023-02-26T05:56:22.555Z,373
2023-02-26T05:57:21.294Z,381
2023-02-26T05:58:21.810Z,388
2023-02-26T05:59:21.771Z,385
2023-02-26T06:00:23.154Z,389
2023-02-26T06:01:21.943Z,386
2023-02-26T06:02:22.084Z,388
2023-02-26T06:03:21.291Z,397
2023-02-26T06:04:22.122Z,398
2023-02-26T06:05:21.263Z,390
2023-02-26T06:06:21.717Z,398
2023-02-26T06:07:22.164Z,394
2023-02-26T06:08:22.095Z,389
2023-02-26T06:09:21.333Z,402
2023-02-26T06:10:21.817Z,397
2023-02-26T06:11:21.230Z,394
2023-02-26T06:12:22.729Z,395
2023-02-26T06:13:22.489Z,385
2023-02-26T06:14:22.098Z,389
2023-02-26T06:15:22.397Z,385
2023-02-26T06:16:21.963Z,391
2023-02-26T06:17:22.162Z,390
2023-02-26T06:19:22.633Z,383
2023-02-26T06:20:21.911Z,390
2023-02-26T06:22:21.486Z,407
2023-02-26T06:23:22.240Z,395
2023-02-26T06:24:21.658Z,396
2023-02-26T06:25:22.143Z,393
2023-02-26T06:26:23.729Z,400
2023-02-26T06:28:21.347Z,401
2023-02-26T06:29:21.819Z,392
2023-02-26T06:30:21.757Z,393
2023-02-26T06:31:21.807Z,385
2023-02-26T06:32:22.405Z,383
2023-02-26T06:33:22.252Z,379
2023-02-26T06:34:21.552Z,382
2023-02-26T06:35:22.337Z,386
2023-02-26T06:36:21.367Z,389
2023-02-26T06:37:22.152Z,386
2023-02-26T06:38:21.745Z,393
2023-02-26T06:39:21.915Z,389
2023-02-26T06:40:22.113Z,382
2023-02-26T06:41:21.802Z,388
2023-02-26T06:42:21.285Z,387
2023-02-26T06:43:21.983Z,388
2023-02-26T06:44:22.201Z,392
2023-02-26T06:46:27.271Z,402
2023-02-26T06:48:22.302Z,389
2023-02-26T06:50:22.454Z,392
2023-02-26T06:51:21.759Z,400
2023-02-26T06:52:22.654Z,390
2023-02-26T06:53:21.555Z,392
2023-02-26T06:55:22.145Z,395
2023-02-26T06:56:24.310Z,394
2023-02-26T06:57:22.309Z,386
2023-02-26T06:58:21.659Z,399
2023-02-26T07:00:29.235Z,397
2023-02-26T07:01:23.399Z,400
2023-02-26T07:03:23.712Z,390
2023-02-26T07:05:22.919Z,386
2023-02-26T07:06:38.303Z,388
2023-02-26T07:07:22.402Z,386
2023-02-26T07:08:22.645Z,389
2023-02-26T07:09:22.158Z,383
2023-02-26T07:10:36.807Z,386
2023-02-26T07:11:23.152Z,401
2023-02-26T07:12:22.061Z,399
2023-02-26T07:13:22.536Z,391
2023-02-26T07:14:23.111Z,389
2023-02-26T07:15:22.849Z,384
2023-02-26T07:16:22.715Z,375
2023-02-26T07:17:21.698Z,383
2023-02-26T07:18:22.127Z,395
2023-02-26T07:19:22.472Z,401
2023-02-26T07:20:22.678Z,399
2023-02-26T07:21:22.114Z,390
2023-02-26T07:22:41.588Z,384
2023-02-26T07:23:22.828Z,386
2023-02-26T07:24:22.950Z,390
2023-02-26T07:26:22.631Z,392
2023-02-26T07:27:22.225Z,395
2023-02-26T07:29:22.002Z,384
2023-02-26T07:30:22.984Z,390
2023-02-26T07:31:22.735Z,398
2023-02-26T07:32:22.694Z,404
2023-02-26T07:33:22.821Z,400
2023-02-26T07:34:22.313Z,395
2023-02-26T07:37:22.569Z,391
2023-02-26T07:38:22.124Z,388
2023-02-26T07:39:22.831Z,394
2023-02-26T07:40:23.314Z,398
2023-02-26T07:41:22.614Z,400
2023-02-26T07:42:23.041Z,398
2023-02-26T07:43:22.350Z,392
2023-02-26T07:44:22.848Z,396
2023-02-26T07:45:22.675Z,402
2023-02-26T07:46:22.870Z,396
2023-02-26T07:47:22.649Z,391
2023-02-26T07:48:22.327Z,393
2023-02-26T07:49:22.024Z,386
2023-02-26T07:51:23.570Z,383
2023-02-26T07:52:22.304Z,380
2023-02-26T07:53:22.237Z,376
2023-02-26T07:54:21.735Z,380
2023-02-26T07:55:22.232Z,385
2023-02-26T07:58:22.327Z,382
2023-02-26T07:59:22.138Z,378
2023-02-26T08:00:23.828Z,377
2023-02-26T08:01:23.117Z,390
2023-02-26T08:03:26.780Z,399
2023-02-26T08:04:22.894Z,385
2023-02-26T08:05:23.403Z,387
2023-02-26T08:06:22.344Z,383
2023-02-26T08:07:22.885Z,376
2023-02-26T08:08:22.533Z,379
2023-02-26T08:09:22.505Z,380
2023-02-26T08:10:22.762Z,389
2023-02-26T08:11:22.406Z,381
2023-02-26T08:12:22.538Z,384
2023-02-26T08:13:22.521Z,383
2023-02-26T08:15:23.014Z,393
2023-02-26T08:16:22.855Z,385
2023-02-26T08:17:22.308Z,374
2023-02-26T08:18:22.537Z,377
2023-02-26T08:19:22.272Z,381
2023-02-26T08:20:21.657Z,380
2023-02-26T08:21:22.563Z,374
2023-02-26T08:22:22.896Z,390
2023-02-26T08:23:22.637Z,388
2023-02-26T08:24:22.819Z,393
2023-02-26T08:25:23.324Z,395
2023-02-26T08:26:23.301Z,389
2023-02-26T08:27:22.788Z,379
2023-02-26T08:28:22.694Z,372
2023-02-26T08:29:23.061Z,389
2023-02-26T08:30:23.139Z,387
2023-02-26T08:31:22.501Z,383
2023-02-26T08:32:22.439Z,385
2023-02-26T08:33:24.728Z,383
2023-02-26T08:34:22.217Z,381
2023-02-26T08:36:22.609Z,377
2023-02-26T08:37:22.799Z,382
2023-02-26T08:38:22.574Z,375
2023-02-26T08:39:21.841Z,369
2023-02-26T08:40:22.825Z,374
2023-02-26T08:42:23.219Z,380
2023-02-26T08:43:22.572Z,389
2023-02-26T08:44:22.566Z,380
2023-02-26T08:45:22.749Z,382
2023-02-26T08:46:22.993Z,378
2023-02-26T08:47:28.847Z,376
2023-02-26T08:48:22.652Z,377
2023-02-26T08:49:23.144Z,378
2023-02-26T08:50:23.737Z,376
2023-02-26T08:53:22.905Z,385
2023-02-26T08:54:23.387Z,377
2023-02-26T08:57:21.892Z,370
2023-02-26T08:58:22.652Z,368
2023-02-26T08:59:22.799Z,377
2023-02-26T09:00:24.982Z,381
2023-02-26T09:01:23.121Z,372
2023-02-26T09:02:21.753Z,373
2023-02-26T09:03:22.734Z,379
2023-02-26T09:04:22.246Z,380
2023-02-26T09:05:22.712Z,378
2023-02-26T09:06:22.456Z,386
2023-02-26T09:07:22.889Z,383
2023-02-26T09:08:22.945Z,370
2023-02-26T09:10:22.991Z,372
2023-02-26T09:11:23.916Z,371
2023-02-26T09:12:23.179Z,374
2023-02-26T09:13:23.187Z,380
2023-02-26T09:14:22.990Z,374
2023-02-26T09:15:23.577Z,369
2023-02-26T09:16:23.704Z,376
2023-02-26T09:17:23.125Z,373
2023-02-26T09:18:22.632Z,371
2023-02-26T09:19:23.067Z,372
2023-02-26T09:20:23.204Z,377
2023-02-26T09:21:22.952Z,374
2023-02-26T09:22:23.628Z,377
2023-02-26T09:23:22.493Z,373
2023-02-26T09:24:22.936Z,376
2023-02-26T09:25:30.734Z,379
2023-02-26T09:26:23.078Z,373
2023-02-26T09:27:22.788Z,379
2023-02-26T09:28:22.706Z,384
2023-02-26T09:29:22.862Z,378
2023-02-26T09:30:23.029Z,379
2023-02-26T09:31:23.054Z,381
2023-02-26T09:32:22.281Z,376
2023-02-26T09:33:22.984Z,374
2023-02-26T09:34:22.634Z,371
2023-02-26T09:35:22.891Z,374
2023-02-26T09:36:23.434Z,380
2023-02-26T09:37:23.084Z,378
2023-02-26T09:38:22.513Z,371
2023-02-26T09:40:23.443Z,369
2023-02-26T09:41:22.676Z,359
2023-02-26T09:42:22.509Z,361
2023-02-26T09:43:22.656Z,368
2023-02-26T09:44:23.129Z,373
2023-02-26T09:45:23.267Z,374
2023-02-26T09:46:22.586Z,375
2023-02-26T09:47:22.647Z,374
2023-02-26T09:48:23.058Z,371
2023-02-26T09:49:22.807Z,378
2023-02-26T09:50:23.227Z,391
2023-02-26T09:51:22.131Z,385
2023-02-26T09:52:22.916Z,373
2023-02-26T09:53:22.411Z,372
2023-02-26T09:55:23.344Z,377
2023-02-26T09:56:22.580Z,374
2023-02-26T09:57:22.569Z,368
2023-02-26T09:58:22.218Z,363
2023-02-26T09:59:22.541Z,376
2023-02-26T10:02:23.977Z,381
2023-02-26T10:03:22.582Z,376
2023-02-26T10:04:23.084Z,375
2023-02-26T10:06:25.811Z,380
2023-02-26T10:07:22.372Z,385
2023-02-26T10:08:22.356Z,382
2023-02-26T10:09:22.758Z,373
2023-02-26T10:10:22.671Z,372
2023-02-26T10:11:23.597Z,374
2023-02-26T10:12:22.642Z,383
2023-02-26T10:13:23.260Z,375
2023-02-26T10:14:22.340Z,369
2023-02-26T10:16:22.920Z,365
2023-02-26T10:17:23.235Z,362
2023-02-26T10:18:23.061Z,372
2023-02-26T10:19:22.836Z,377
2023-02-26T10:20:23.235Z,379
2023-02-26T10:21:23.083Z,385
2023-02-26T10:22:22.814Z,373
2023-02-26T10:23:22.789Z,365
2023-02-26T10:24:23.055Z,367
2023-02-26T10:25:23.197Z,370
2023-02-26T10:26:23.000Z,376
2023-02-26T10:27:22.923Z,385
2023-02-26T10:28:22.821Z,373
2023-02-26T10:29:23.485Z,378
2023-02-26T10:30:23.034Z,375
2023-02-26T10:31:22.342Z,370
2023-02-26T10:32:22.505Z,368
2023-02-26T10:33:22.262Z,361
2023-02-26T10:34:22.802Z,370
2023-02-26T10:35:23.910Z,365
2023-02-26T10:36:22.929Z,366
2023-02-26T10:37:23.201Z,364
2023-02-26T10:38:22.370Z,374
2023-02-26T10:40:23.262Z,376
2023-02-26T10:41:22.154Z,368
2023-02-26T10:42:22.316Z,370
2023-02-26T10:43:22.631Z,368
2023-02-26T10:44:22.792Z,376
2023-02-26T10:45:23.412Z,366
2023-02-26T10:46:22.244Z,376
2023-02-26T10:47:23.034Z,380
2023-02-26T10:48:23.536Z,383
2023-02-26T10:49:23.815Z,371
2023-02-26T10:50:22.869Z,376
2023-02-26T10:51:24.234Z,370
2023-02-26T10:52:22.879Z,367
2023-02-26T10:53:23.121Z,377
2023-02-26T10:54:23.101Z,369
2023-02-26T10:55:22.724Z,376
2023-02-26T10:57:22.756Z,367
2023-02-26T10:58:23.783Z,358
2023-02-26T10:59:23.116Z,362
2023-02-26T11:00:24.094Z,365
2023-02-26T11:01:23.417Z,369
2023-02-26T11:02:23.150Z,377
2023-02-26T11:04:23.046Z,363
2023-02-26T11:05:23.395Z,367
2023-02-26T11:06:23.848Z,365
2023-02-26T11:07:24.475Z,367
2023-02-26T11:08:23.462Z,362
2023-02-26T11:09:25.436Z,367
2023-02-26T11:10:23.475Z,352
2023-02-26T11:11:23.620Z,360
2023-02-26T11:12:23.429Z,366
2023-02-26T11:13:23.211Z,370
2023-02-26T11:14:23.736Z,377
2023-02-26T11:15:23.105Z,386
2023-02-26T11:16:23.116Z,367
2023-02-26T11:17:22.747Z,368
2023-02-26T11:19:23.267Z,374
2023-02-26T11:20:24.843Z,372
2023-02-26T11:21:22.852Z,373
2023-02-26T11:22:23.100Z,371
2023-02-26T11:23:22.897Z,365
2023-02-26T11:24:21.943Z,357
2023-02-26T11:26:22.899Z,356
2023-02-26T11:27:22.432Z,353
2023-02-26T11:28:23.326Z,360
2023-02-26T11:29:23.461Z,358
2023-02-26T11:30:23.357Z,356
2023-02-26T11:32:23.295Z,379
2023-02-26T11:33:23.220Z,370
2023-02-26T11:34:23.627Z,374
2023-02-26T11:35:23.310Z,369
2023-02-26T11:36:28.439Z,379
2023-02-26T11:37:22.555Z,385
2023-02-26T11:38:22.452Z,368
2023-02-26T11:39:23.365Z,364
2023-02-26T11:40:22.535Z,358
2023-02-26T11:41:22.248Z,366
2023-02-26T11:42:22.660Z,371
2023-02-26T11:43:22.567Z,370
2023-02-26T11:44:22.739Z,371
2023-02-26T11:45:23.141Z,377
2023-02-26T11:46:22.888Z,371
2023-02-26T11:48:30.639Z,379
2023-02-26T11:50:23.050Z,369
2023-02-26T11:51:23.454Z,364
2023-02-26T11:53:23.035Z,367
2023-02-26T11:54:22.075Z,361
2023-02-26T11:55:23.989Z,367
2023-02-26T11:56:22.860Z,377
2023-02-26T11:57:23.184Z,374
2023-02-26T11:58:23.218Z,365
2023-02-26T11:59:23.067Z,360
2023-02-26T12:00:24.261Z,357
2023-02-26T12:01:22.377Z,369
2023-02-26T12:02:23.247Z,367
2023-02-26T12:03:22.676Z,357
2023-02-26T12:04:23.230Z,358
2023-02-26T12:05:23.448Z,365
2023-02-26T12:06:36.905Z,357
2023-02-26T12:07:23.601Z,355
2023-02-26T12:08:22.917Z,359
2023-02-26T12:09:23.188Z,366
2023-02-26T12:10:22.368Z,375
2023-02-26T12:11:23.429Z,374
2023-02-26T12:12:23.207Z,381
2023-02-26T12:13:23.361Z,374
2023-02-26T12:15:23.214Z,369
2023-02-26T12:16:23.172Z,362
2023-02-26T12:17:22.988Z,363
2023-02-26T12:18:23.057Z,361
2023-02-26T12:19:22.959Z,366
2023-02-26T12:20:22.959Z,369
2023-02-26T12:21:23.772Z,368
2023-02-26T12:22:22.784Z,372
2023-02-26T12:23:23.713Z,369
2023-02-26T12:24:23.459Z,368
2023-02-26T12:25:22.777Z,369
2023-02-26T12:26:23.357Z,368
2023-02-26T12:27:22.254Z,374
2023-02-26T12:28:22.975Z,375
2023-02-26T12:29:22.996Z,384
2023-02-26T12:30:23.350Z,390
2023-02-26T12:31:22.914Z,368
2023-02-26T12:32:22.865Z,370
2023-02-26T12:33:22.862Z,373
2023-02-26T12:34:21.530Z,371
2023-02-26T12:35:22.995Z,376
2023-02-26T12:36:23.127Z,378
2023-02-26T12:37:23.001Z,374
2023-02-26T12:39:24.538Z,364
2023-02-26T12:41:28.910Z,368
2023-02-26T12:42:23.136Z,363
2023-02-26T12:43:22.468Z,358
2023-02-26T12:45:23.154Z,367
2023-02-26T12:46:22.911Z,365
2023-02-26T12:47:23.836Z,371
2023-02-26T12:48:22.685Z,367
2023-02-26T12:49:23.527Z,375
2023-02-26T12:50:23.599Z,361
2023-02-26T12:51:22.379Z,356
2023-02-26T12:52:23.391Z,358
2023-02-26T12:53:22.811Z,372
2023-02-26T12:54:22.881Z,375
2023-02-26T12:55:23.206Z,371
2023-02-26T12:56:23.709Z,368
2023-02-26T12:57:23.589Z,361
2023-02-26T12:58:23.824Z,358
2023-02-26T12:59:22.905Z,371
2023-02-26T13:00:25.705Z,372
2023-02-26T13:01:24.258Z,375
2023-02-26T13:02:25.283Z,373
2023-02-26T13:03:22.564Z,362
2023-02-26T13:04:22.885Z,373
2023-02-26T13:05:22.728Z,368
2023-02-26T13:06:22.481Z,360
2023-02-26T13:07:23.001Z,358
2023-02-26T13:08:22.762Z,368
2023-02-26T13:09:23.130Z,374
2023-02-26T13:10:22.484Z,380
2023-02-26T13:11:22.915Z,367
2023-02-26T13:12:22.671Z,369
2023-02-26T13:13:23.008Z,351
2023-02-26T13:14:23.212Z,363
2023-02-26T13:15:24.071Z,364
2023-02-26T13:17:22.787Z,369
2023-02-26T13:18:23.127Z,378
2023-02-26T13:19:25.988Z,372
2023-02-26T13:20:23.782Z,371
2023-02-26T13:21:23.512Z,374
2023-02-26T13:22:22.892Z,365
2023-02-26T13:23:23.755Z,368
2023-02-26T13:24:23.108Z,367
2023-02-26T13:26:23.521Z,368
2023-02-26T13:27:26.448Z,378
2023-02-26T13:28:24.079Z,381
2023-02-26T13:29:22.774Z,380
2023-02-26T13:30:23.313Z,387
2023-02-26T13:31:25.273Z,376
2023-02-26T13:32:23.174Z,382
2023-02-26T13:33:22.954Z,370
2023-02-26T13:34:26.392Z,368
2023-02-26T13:35:24.417Z,359
2023-02-26T13:36:23.146Z,370
2023-02-26T13:37:22.787Z,371
2023-02-26T13:38:22.939Z,358
2023-02-26T13:39:22.334Z,361
2023-02-26T13:40:23.488Z,359
2023-02-26T13:41:22.130Z,358
2023-02-26T13:42:23.184Z,362
2023-02-26T13:43:22.282Z,373
2023-02-26T13:44:23.039Z,363
2023-02-26T13:45:23.630Z,368
2023-02-26T13:46:22.468Z,363
2023-02-26T13:47:23.237Z,365
2023-02-26T13:48:22.624Z,363
2023-02-26T13:49:22.615Z,361
2023-02-26T13:50:23.264Z,363
2023-02-26T13:51:22.744Z,370
2023-02-26T13:52:23.132Z,380
2023-02-26T13:53:23.437Z,389
2023-02-26T13:54:23.087Z,379
2023-02-26T13:55:22.873Z,369
2023-02-26T13:56:22.456Z,386
2023-02-26T13:57:22.447Z,389
2023-02-26T13:58:21.928Z,380
2023-02-26T13:59:22.521Z,373
2023-02-26T14:01:28.027Z,363
2023-02-26T14:02:22.497Z,360
2023-02-26T14:03:21.942Z,363
2023-02-26T14:04:22.948Z,362
2023-02-26T14:05:27.209Z,364
2023-02-26T14:06:22.876Z,376
2023-02-26T14:07:22.257Z,380
2023-02-26T14:08:22.106Z,358
2023-02-26T14:09:23.072Z,366
2023-02-26T14:11:22.673Z,370
2023-02-26T14:12:21.931Z,365
2023-02-26T14:13:30.644Z,356
2023-02-26T14:14:21.924Z,362
2023-02-26T14:15:29.356Z,356
2023-02-26T14:16:22.659Z,363
2023-02-26T14:17:23.615Z,378
2023-02-26T14:18:23.800Z,377
2023-02-26T14:19:21.471Z,374
2023-02-26T14:20:22.779Z,351
2023-02-26T14:21:22.642Z,350
2023-02-26T14:22:23.424Z,360
2023-02-26T14:24:23.061Z,363
2023-02-26T14:25:36.361Z,373
2023-02-26T14:26:22.450Z,378
2023-02-26T14:27:22.845Z,370
2023-02-26T14:29:22.008Z,365
2023-02-26T14:30:22.743Z,355
2023-02-26T14:31:36.327Z,361
2023-02-26T14:32:23.219Z,365
2023-02-26T14:33:21.726Z,369
2023-02-26T14:34:22.413Z,364
2023-02-26T14:36:22.197Z,365
2023-02-26T14:37:22.968Z,366
2023-02-26T14:38:22.458Z,360
2023-02-26T14:39:23.181Z,365
2023-02-26T14:40:22.364Z,367
2023-02-26T14:41:22.505Z,369
2023-02-26T14:42:22.389Z,372
2023-02-26T14:43:22.498Z,359
2023-02-26T14:44:22.277Z,353
2023-02-26T14:45:42.266Z,359
2023-02-26T14:46:22.480Z,355
2023-02-26T14:47:22.524Z,366
2023-02-26T14:48:22.680Z,364
2023-02-26T14:49:22.025Z,358
2023-02-26T14:50:23.286Z,370
2023-02-26T14:51:22.252Z,372
2023-02-26T14:53:23.505Z,365
2023-02-26T14:55:23.711Z,371
2023-02-26T14:56:23.114Z,359
2023-02-26T14:57:22.601Z,365
2023-02-26T14:58:23.131Z,367
2023-02-26T14:59:22.453Z,361
2023-02-26T15:00:23.836Z,370
2023-02-26T15:02:24.809Z,372
2023-02-26T15:03:22.730Z,365
2023-02-26T15:04:23.240Z,367
2023-02-26T15:05:23.261Z,373
2023-02-26T15:06:23.216Z,384
2023-02-26T15:07:22.621Z,380
2023-02-26T15:08:23.157Z,378
2023-02-26T15:10:25.410Z,366
2023-02-26T15:12:23.474Z,367